createdAt,value
2024-01-08T00:00:40.784Z,0.51
2024-01-08T00:01:40.766Z,0.51
2024-01-08T00:02:40.727Z,0.51
2024-01-08T00:03:40.760Z,0.52
2024-01-08T00:04:40.705Z,0.51
2024-01-08T00:05:40.871Z,0.51
2024-01-08T00:06:40.753Z,0.51
2024-01-08T00:07:40.709Z,0.52
2024-01-08T00:08:40.714Z,0.51
2024-01-08T00:09:40.706Z,0.51
2024-01-08T00:10:40.716Z,0.52
2024-01-08T00:11:40.728Z,0.52
2024-01-08T00:12:40.721Z,0.52
2024-01-08T00:13:40.722Z,0.52
2024-01-08T00:14:40.718Z,0.51
2024-01-08T00:15:40.733Z,0.51
2024-01-08T00:16:40.718Z,0.51
2024-01-08T00:17:40.804Z,0.52
2024-01-08T00:18:40.804Z,0.52
2024-01-08T00:19:40.747Z,0.52
2024-01-08T00:20:40.743Z,0.51
2024-01-08T00:21:40.725Z,0.51
2024-01-08T00:22:40.759Z,0.51
2024-01-08T00:23:40.741Z,0.52
2024-01-08T00:24:40.756Z,0.52
2024-01-08T00:25:40.734Z,0.51
2024-01-08T00:27:40.743Z,0.51
2024-01-08T00:28:40.736Z,0.52
2024-01-08T00:29:40.739Z,0.51
2024-01-08T00:30:40.766Z,0.51
2024-01-08T00:31:40.829Z,0.51
2024-01-08T00:32:40.908Z,0.51
2024-01-08T00:33:40.814Z,0.51
2024-01-08T00:34:40.757Z,0.51
2024-01-08T00:35:40.807Z,0.51
2024-01-08T00:36:40.749Z,0.52
2024-01-08T00:37:40.760Z,0.51
2024-01-08T00:38:40.756Z,0.52
2024-01-08T00:39:40.755Z,0.51
2024-01-08T00:40:40.759Z,0.51
2024-01-08T00:41:40.755Z,0.51
2024-01-08T00:42:41.124Z,0.51
2024-01-08T00:43:40.759Z,0.52
2024-01-08T00:44:40.811Z,0.51
2024-01-08T00:45:40.776Z,0.51
2024-01-08T00:46:40.769Z,0.51
2024-01-08T00:47:40.852Z,0.52
2024-01-08T00:48:40.782Z,0.51
2024-01-08T00:49:40.777Z,0.52
2024-01-08T00:50:40.793Z,0.52
2024-01-08T00:51:40.782Z,0.52
2024-01-08T00:52:40.789Z,0.51
2024-01-08T00:53:40.787Z,0.52
2024-01-08T00:54:40.781Z,0.51
2024-01-08T00:55:40.793Z,0.52
2024-01-08T00:56:40.802Z,0.51
2024-01-08T00:57:40.793Z,0.52
2024-01-08T00:58:40.796Z,0.51
2024-01-08T00:59:40.798Z,0.51
2024-01-08T01:00:40.811Z,0.51
2024-01-08T01:01:40.793Z,0.51
2024-01-08T01:02:40.854Z,0.51
2024-01-08T01:03:40.981Z,0.52
2024-01-08T01:04:40.971Z,0.50
2024-01-08T01:05:40.871Z,0.51
2024-01-08T01:06:40.811Z,0.51
2024-01-08T01:07:40.826Z,0.51
2024-01-08T01:08:40.808Z,0.51
2024-01-08T01:09:40.816Z,0.51
2024-01-08T01:10:40.837Z,0.50
2024-01-08T01:11:40.818Z,0.51
2024-01-08T01:12:40.843Z,0.51
2024-01-08T01:13:40.840Z,0.52
2024-01-08T01:14:40.819Z,0.53
2024-01-08T01:15:40.827Z,0.51
2024-01-08T01:16:40.830Z,0.50
2024-01-08T01:17:40.929Z,0.52
2024-01-08T01:18:40.915Z,0.51
2024-01-08T01:19:40.834Z,0.52
2024-01-08T01:20:40.834Z,0.52
2024-01-08T01:21:40.840Z,0.52
2024-01-08T01:22:40.851Z,0.51
2024-01-08T01:23:40.878Z,0.51
2024-01-08T01:24:40.853Z,0.50
2024-01-08T01:25:40.862Z,0.52
2024-01-08T01:26:40.875Z,0.52
2024-01-08T01:27:40.889Z,0.51
2024-01-08T01:28:40.887Z,0.50
2024-01-08T01:29:40.922Z,0.51
2024-01-08T01:30:40.954Z,0.51
2024-01-08T01:31:40.912Z,0.52
2024-01-08T01:32:41.005Z,0.52
2024-01-08T01:33:40.981Z,0.51
2024-01-08T01:34:40.920Z,0.51
2024-01-08T01:35:40.970Z,0.52
2024-01-08T01:36:41.043Z,0.52
2024-01-08T01:37:40.969Z,0.51
2024-01-08T01:38:41.029Z,0.51
2024-01-08T01:39:40.935Z,0.51
2024-01-08T01:40:40.934Z,0.51
2024-01-08T01:41:41.027Z,0.51
2024-01-08T01:42:40.980Z,0.51
2024-01-08T01:43:40.978Z,0.51
2024-01-08T01:44:41.033Z,0.51
2024-01-08T01:45:40.989Z,0.51
2024-01-08T01:46:41.012Z,0.52
2024-01-08T01:47:41.152Z,0.52
2024-01-08T01:48:41.121Z,0.51
2024-01-08T01:49:41.052Z,0.52
2024-01-08T01:50:41.074Z,0.51
2024-01-08T01:51:41.064Z,0.52
2024-01-08T01:52:41.053Z,0.51
2024-01-08T01:53:41.057Z,0.51
2024-01-08T01:54:41.092Z,0.51
2024-01-08T01:55:41.089Z,0.51
2024-01-08T01:56:41.091Z,0.52
2024-01-08T01:57:41.114Z,0.52
2024-01-08T01:58:41.111Z,0.50
2024-01-08T01:59:41.200Z,0.52
2024-01-08T02:00:41.155Z,0.52
2024-01-08T02:01:41.138Z,0.51
2024-01-08T02:02:41.247Z,0.52
2024-01-08T02:03:41.191Z,0.51
2024-01-08T02:04:41.245Z,0.51
2024-01-08T02:05:41.209Z,0.52
2024-01-08T02:06:41.174Z,0.51
2024-01-08T02:07:41.181Z,0.51
2024-01-08T02:08:41.205Z,0.51
2024-01-08T02:09:41.206Z,0.52
2024-01-08T02:10:41.322Z,0.52
2024-01-08T02:11:41.309Z,0.51
2024-01-08T02:12:41.282Z,0.51
2024-01-08T02:13:41.292Z,0.52
2024-01-08T02:14:41.391Z,0.51
2024-01-08T02:15:41.316Z,0.51
2024-01-08T02:16:41.310Z,0.52
2024-01-08T02:17:41.357Z,0.51
2024-01-08T02:18:41.396Z,0.52
2024-01-08T02:19:41.337Z,0.51
2024-01-08T02:20:41.331Z,0.52
2024-01-08T02:21:41.335Z,0.52
2024-01-08T02:22:41.344Z,0.51
2024-01-08T02:23:41.357Z,0.52
2024-01-08T02:24:41.348Z,0.51
2024-01-08T02:25:41.371Z,0.51
2024-01-08T02:26:41.416Z,0.51
2024-01-08T02:27:41.374Z,0.51
2024-01-08T02:28:41.382Z,0.52
2024-01-08T02:29:41.438Z,0.51
2024-01-08T02:30:41.457Z,0.51
2024-01-08T02:31:41.454Z,0.52
2024-01-08T02:32:41.517Z,0.51
2024-01-08T02:33:41.433Z,0.51
2024-01-08T02:34:41.459Z,0.51
2024-01-08T02:35:41.446Z,0.51
2024-01-08T02:36:41.453Z,0.51
2024-01-08T02:37:41.469Z,0.52
2024-01-08T02:38:41.466Z,0.52
2024-01-08T02:39:41.469Z,0.52
2024-01-08T02:40:41.474Z,0.52
2024-01-08T02:41:41.484Z,0.51
2024-01-08T02:42:41.496Z,0.51
2024-01-08T02:43:41.498Z,0.51
2024-01-08T02:44:41.494Z,0.51
2024-01-08T02:45:41.499Z,0.51
2024-01-08T02:46:41.517Z,0.52
2024-01-08T02:47:41.858Z,0.51
2024-01-08T02:48:41.616Z,0.51
2024-01-08T02:49:41.509Z,0.51
2024-01-08T02:50:41.526Z,0.52
2024-01-08T02:51:41.522Z,0.52
2024-01-08T02:52:41.534Z,0.52
2024-01-08T02:53:41.549Z,0.51
2024-01-08T02:54:41.534Z,0.51
2024-01-08T02:55:41.532Z,0.50
2024-01-08T02:56:41.565Z,0.51
2024-01-08T02:57:41.569Z,0.51
2024-01-08T02:58:41.578Z,0.51
2024-01-08T02:59:41.560Z,0.51
2024-01-08T03:00:41.596Z,0.51
2024-01-08T03:01:41.578Z,0.51
2024-01-08T03:02:41.621Z,0.51
2024-01-08T03:03:41.635Z,0.51
2024-01-08T03:04:41.607Z,0.51
2024-01-08T03:05:41.653Z,0.50
2024-01-08T03:06:41.658Z,0.52
2024-01-08T03:07:41.628Z,0.52
2024-01-08T03:08:41.680Z,0.51
2024-01-08T03:09:41.646Z,0.51
2024-01-08T03:10:41.645Z,0.51
2024-01-08T03:11:41.664Z,0.51
2024-01-08T03:12:41.664Z,0.51
2024-01-08T03:13:41.680Z,0.50
2024-01-08T03:14:41.698Z,0.52
2024-01-08T03:15:41.709Z,0.50
2024-01-08T03:16:41.743Z,0.52
2024-01-08T03:17:41.920Z,0.52
2024-01-08T03:18:41.817Z,0.50
2024-01-08T03:19:41.721Z,0.51
2024-01-08T03:20:41.812Z,0.50
2024-01-08T03:21:41.769Z,0.52
2024-01-08T03:22:41.783Z,0.51
2024-01-08T03:23:41.896Z,0.51
2024-01-08T03:24:41.843Z,0.51
2024-01-08T03:25:41.818Z,0.51
2024-01-08T03:26:41.853Z,0.51
2024-01-08T03:27:41.815Z,0.51
2024-01-08T03:28:41.823Z,0.52
2024-01-08T03:29:41.842Z,0.51
2024-01-08T03:30:41.951Z,0.50
2024-01-08T03:31:41.846Z,0.53
2024-01-08T03:32:42.048Z,0.52
2024-01-08T03:33:41.902Z,0.52
2024-01-08T03:34:41.854Z,0.51
2024-01-08T03:35:41.897Z,0.52
2024-01-08T03:36:41.876Z,0.51
2024-01-08T03:37:41.884Z,0.51
2024-01-08T03:38:41.890Z,0.51
2024-01-08T03:39:41.892Z,0.52
2024-01-08T03:40:41.892Z,0.51
2024-01-08T03:41:41.897Z,0.52
2024-01-08T03:42:41.909Z,0.52
2024-01-08T03:43:41.912Z,0.51
2024-01-08T03:44:41.903Z,0.53
2024-01-08T03:45:41.914Z,0.52
2024-01-08T03:46:41.932Z,0.51
2024-01-08T03:47:42.080Z,0.51
2024-01-08T03:48:42.027Z,0.50
2024-01-08T03:49:41.922Z,0.51
2024-01-08T03:50:42.002Z,0.51
2024-01-08T03:51:41.943Z,0.52
2024-01-08T03:52:41.944Z,0.51
2024-01-08T03:53:41.981Z,0.52
2024-01-08T03:54:41.948Z,0.52
2024-01-08T03:55:41.970Z,0.51
2024-01-08T03:56:42.035Z,0.51
2024-01-08T03:57:41.968Z,0.51
2024-01-08T03:58:41.992Z,0.51
2024-01-08T03:59:42.019Z,0.51
2024-01-08T04:00:42.053Z,0.51
2024-01-08T04:01:42.002Z,0.51
2024-01-08T04:02:42.257Z,0.51
2024-01-08T04:03:42.060Z,0.52
2024-01-08T04:04:42.009Z,0.52
2024-01-08T04:05:42.112Z,0.51
2024-01-08T04:06:42.072Z,0.51
2024-01-08T04:07:42.034Z,0.51
2024-01-08T04:08:42.189Z,0.51
2024-01-08T04:09:42.052Z,0.52
2024-01-08T04:10:42.079Z,0.51
2024-01-08T04:11:42.082Z,0.52
2024-01-08T04:12:42.114Z,0.51
2024-01-08T04:13:42.122Z,0.51
2024-01-08T04:14:42.169Z,0.51
2024-01-08T04:15:42.143Z,0.51
2024-01-08T04:16:42.187Z,0.52
2024-01-08T04:17:42.274Z,0.51
2024-01-08T04:18:42.219Z,0.51
2024-01-08T04:19:42.157Z,0.51
2024-01-08T04:20:42.225Z,0.51
2024-01-08T04:21:42.168Z,0.52
2024-01-08T04:22:42.181Z,0.52
2024-01-08T04:23:42.192Z,0.51
2024-01-08T04:24:42.198Z,0.52
2024-01-08T04:25:42.199Z,0.51
2024-01-08T04:26:42.198Z,0.52
2024-01-08T04:27:49.402Z,0.50
2024-01-08T04:28:49.498Z,0.50
2024-01-08T04:29:49.406Z,0.50
2024-01-08T04:30:49.556Z,0.50
2024-01-08T04:31:56.774Z,0.50
2024-01-08T04:32:56.866Z,0.50
2024-01-08T04:33:56.851Z,0.50
2024-01-08T04:34:56.820Z,0.50
2024-01-08T04:35:56.776Z,0.50
2024-01-08T04:36:56.775Z,0.50
2024-01-08T04:37:56.786Z,0.50
2024-01-08T04:38:56.778Z,0.50
2024-01-08T04:39:56.813Z,0.51
2024-01-08T04:40:56.803Z,0.50
2024-01-08T04:41:56.790Z,0.51
2024-01-08T04:42:56.784Z,0.51
2024-01-08T04:43:56.828Z,0.50
2024-01-08T04:44:56.785Z,0.52
2024-01-08T04:45:56.798Z,0.52
2024-01-08T04:46:56.834Z,0.51
2024-01-08T04:47:56.873Z,0.51
2024-01-08T04:48:56.832Z,0.52
2024-01-08T04:49:56.853Z,0.51
2024-01-08T04:50:56.788Z,0.50
2024-01-08T04:51:56.791Z,0.51
2024-01-08T04:52:56.812Z,0.51
2024-01-08T04:53:56.810Z,0.51
2024-01-08T04:54:56.811Z,0.51
2024-01-08T04:55:56.824Z,0.50
2024-01-08T04:56:56.817Z,0.52
2024-01-08T04:57:56.806Z,0.52
2024-01-08T04:58:56.950Z,0.51
2024-01-08T04:59:56.803Z,0.51
2024-01-08T05:00:56.813Z,0.51
2024-01-08T05:01:56.877Z,0.51
2024-01-08T05:02:56.827Z,0.52
2024-01-08T05:03:56.816Z,0.52
2024-01-08T05:04:56.876Z,0.51
2024-01-08T05:05:56.868Z,0.51
2024-01-08T05:06:56.809Z,0.51
2024-01-08T05:07:56.835Z,0.52
2024-01-08T05:08:56.804Z,0.51
2024-01-08T05:09:56.808Z,0.52
2024-01-08T05:10:56.870Z,0.51
2024-01-08T05:11:56.811Z,0.51
2024-01-08T05:12:56.826Z,0.50
2024-01-08T05:13:56.836Z,0.51
2024-01-08T05:14:56.817Z,0.52
2024-01-08T05:15:56.818Z,0.52
2024-01-08T05:16:56.881Z,0.51
2024-01-08T05:17:57.000Z,0.52
2024-01-08T05:18:56.937Z,0.51
2024-01-08T05:19:56.873Z,0.52
2024-01-08T05:20:56.834Z,0.52
2024-01-08T05:21:56.835Z,0.51
2024-01-08T05:22:56.873Z,0.50
2024-01-08T05:23:56.832Z,0.52
2024-01-08T05:24:56.845Z,0.50
2024-01-08T05:25:56.880Z,0.52
2024-01-08T05:26:56.842Z,0.51
2024-01-08T05:27:56.867Z,0.51
2024-01-08T05:28:56.892Z,0.51
2024-01-08T05:29:56.845Z,0.51
2024-01-08T05:30:57.068Z,0.52
2024-01-08T05:31:56.874Z,0.51
2024-01-08T05:32:56.944Z,0.52
2024-01-08T05:33:56.887Z,0.51
2024-01-08T05:34:56.883Z,0.52
2024-01-08T05:35:56.864Z,0.52
2024-01-08T05:36:56.883Z,0.52
2024-01-08T05:37:56.888Z,0.52
2024-01-08T05:38:56.871Z,0.51
2024-01-08T05:39:56.875Z,0.51
2024-01-08T05:40:57.177Z,0.51
2024-01-08T05:41:56.893Z,0.51
2024-01-08T05:42:56.874Z,0.51
2024-01-08T05:43:56.928Z,0.51
2024-01-08T05:44:56.889Z,0.52
2024-01-08T05:45:56.888Z,0.50
2024-01-08T05:46:56.919Z,0.51
2024-01-08T05:47:57.014Z,0.50
2024-01-08T05:48:56.997Z,0.52
2024-01-08T05:49:56.915Z,0.51
2024-01-08T05:50:56.906Z,0.51
2024-01-08T05:51:56.902Z,0.52
2024-01-08T05:52:56.985Z,0.51
2024-01-08T05:53:56.902Z,0.52
2024-01-08T05:54:56.909Z,0.51
2024-01-08T05:55:56.937Z,0.52
2024-01-08T05:56:56.913Z,0.51
2024-01-08T05:57:56.906Z,0.51
2024-01-08T05:58:56.931Z,0.51
2024-01-08T05:59:56.910Z,0.51
2024-01-08T06:00:56.907Z,0.51
2024-01-08T06:01:56.932Z,0.51
2024-01-08T06:02:56.930Z,0.52
2024-01-08T06:03:56.953Z,0.51
2024-01-08T06:04:56.955Z,0.51
2024-01-08T06:05:57.093Z,0.51
2024-01-08T06:06:56.940Z,0.52
2024-01-08T06:07:56.961Z,0.52
2024-01-08T06:08:56.926Z,0.51
2024-01-08T06:09:56.932Z,0.52
2024-01-08T06:10:56.963Z,0.51
2024-01-08T06:11:56.934Z,0.51
2024-01-08T06:12:56.971Z,0.51
2024-01-08T06:13:57.974Z,0.51
2024-01-08T06:14:57.003Z,0.51
2024-01-08T06:15:56.937Z,0.51
2024-01-08T06:16:57.000Z,0.50
2024-01-08T06:17:56.977Z,0.50
2024-01-08T06:18:56.987Z,0.50
2024-01-08T06:19:56.982Z,0.52
2024-01-08T06:20:56.952Z,0.52
2024-01-08T06:21:56.946Z,0.52
2024-01-08T06:22:57.030Z,0.52
2024-01-08T06:23:56.965Z,0.53
2024-01-08T06:24:56.963Z,0.53
2024-01-08T06:25:57.039Z,0.50
2024-01-08T06:26:56.959Z,0.50
2024-01-08T06:27:56.965Z,0.50
2024-01-08T06:28:57.023Z,0.51
2024-01-08T06:29:56.975Z,0.51
2024-01-08T06:30:57.080Z,0.50
2024-01-08T06:31:57.074Z,0.51
2024-01-08T06:32:57.162Z,0.51
2024-01-08T06:33:57.115Z,0.51
2024-01-08T06:34:57.019Z,0.50
2024-01-08T06:35:57.081Z,0.51
2024-01-08T06:36:57.010Z,0.51
2024-01-08T06:37:57.056Z,0.52
2024-01-08T06:38:56.991Z,0.52
2024-01-08T06:39:56.985Z,0.53
2024-01-08T06:40:57.166Z,0.53
2024-01-08T06:41:57.976Z,0.53
2024-01-08T06:43:01.301Z,0.53
2024-01-08T06:43:58.037Z,0.53
2024-01-08T06:44:56.997Z,0.54
2024-01-08T06:45:57.018Z,0.55
2024-01-08T06:46:57.078Z,0.58
2024-01-08T06:47:57.091Z,0.62
2024-01-08T06:48:57.090Z,0.64
2024-01-08T06:49:57.038Z,0.65
2024-01-08T06:50:56.996Z,0.67
2024-01-08T06:51:57.028Z,0.68
2024-01-08T06:52:57.501Z,0.68
2024-01-08T06:53:57.043Z,0.69
2024-01-08T06:54:57.010Z,0.69
2024-01-08T06:55:57.022Z,0.70
2024-01-08T06:56:57.090Z,0.71
2024-01-08T06:57:57.038Z,0.72
2024-01-08T06:58:57.052Z,0.72
2024-01-08T06:59:57.086Z,0.72
2024-01-08T07:00:57.087Z,0.72
2024-01-08T07:01:57.473Z,0.72
2024-01-08T07:02:57.289Z,0.74
2024-01-08T07:03:57.189Z,0.74
2024-01-08T07:04:57.412Z,0.74
2024-01-08T07:05:57.452Z,0.74
2024-01-08T07:06:57.367Z,0.74
2024-01-08T07:07:57.576Z,0.76
2024-01-08T07:08:57.509Z,0.76
2024-01-08T07:09:57.539Z,0.76
2024-01-08T07:10:57.664Z,0.76
2024-01-08T07:11:57.713Z,0.75
2024-01-08T07:12:57.750Z,0.76
2024-01-08T07:13:58.277Z,0.77
2024-01-08T07:14:57.899Z,0.76
2024-01-08T07:15:57.963Z,0.77
2024-01-08T07:16:58.074Z,0.76
2024-01-08T07:17:59.962Z,0.77
2024-01-08T07:18:58.188Z,0.77
2024-01-08T07:19:58.263Z,0.77
2024-01-08T07:20:58.279Z,0.77
2024-01-08T07:21:58.377Z,0.79
2024-01-08T07:22:58.485Z,0.78
2024-01-08T07:23:58.551Z,0.79
2024-01-08T07:24:58.575Z,0.80
2024-01-08T07:25:58.679Z,0.78
2024-01-08T07:26:58.693Z,0.80
2024-01-08T07:27:58.779Z,0.79
2024-01-08T07:28:58.855Z,0.81
2024-01-08T07:29:58.917Z,0.80
2024-01-08T07:30:59.089Z,0.81
2024-01-08T07:31:59.109Z,0.80
2024-01-08T07:32:59.207Z,0.80
2024-01-08T07:33:59.333Z,0.79
2024-01-08T07:34:59.332Z,0.80
2024-01-08T07:35:59.328Z,0.80
2024-01-08T07:36:59.401Z,0.81
2024-01-08T07:38:00.058Z,0.78
2024-01-08T07:39:00.011Z,0.80
2024-01-08T07:39:59.615Z,0.79
2024-01-08T07:40:59.669Z,0.80
2024-01-08T07:41:59.712Z,0.81
2024-01-08T07:42:59.961Z,0.84
2024-01-08T07:43:59.898Z,0.84
2024-01-08T07:45:00.062Z,0.87
2024-01-08T07:45:59.902Z,0.89
2024-01-08T07:47:00.532Z,0.89
2024-01-08T07:48:00.371Z,0.91
2024-01-08T07:49:00.043Z,0.97
2024-01-08T07:49:59.996Z,0.98
2024-01-08T07:51:00.060Z,1.01
2024-01-08T07:52:00.011Z,1.04
2024-01-08T07:53:00.055Z,1.07
2024-01-08T07:54:00.088Z,1.09
2024-01-08T07:55:00.047Z,1.12
2024-01-08T07:56:00.121Z,1.16
2024-01-08T07:57:02.835Z,1.20
2024-01-08T07:58:00.077Z,1.32
2024-01-08T07:59:00.110Z,1.39
2024-01-08T08:00:00.095Z,1.40
2024-01-08T08:01:00.122Z,1.61
2024-01-08T08:02:00.315Z,1.62
2024-01-08T08:03:00.175Z,1.66
2024-01-08T08:04:03.300Z,1.67
2024-01-08T08:05:00.149Z,1.67
2024-01-08T08:06:00.291Z,1.69
2024-01-08T08:07:00.156Z,1.71
2024-01-08T08:08:00.202Z,1.77
2024-01-08T08:09:00.132Z,1.82
2024-01-08T10:24:02.733Z,0.50
2024-01-08T10:24:25.125Z,0.50
2024-01-08T10:25:25.067Z,0.50
2024-01-08T10:26:25.151Z,0.50
2024-01-08T10:27:25.055Z,0.50
2024-01-08T10:28:25.068Z,0.50
2024-01-08T10:29:25.099Z,0.49
2024-01-08T10:30:25.092Z,0.49
2024-01-08T10:31:25.073Z,0.50
2024-01-08T10:32:25.217Z,0.50
2024-01-08T10:33:25.632Z,0.50
2024-01-08T10:34:25.114Z,0.51
2024-01-08T10:35:25.090Z,0.50
2024-01-08T10:36:25.064Z,0.49
2024-01-08T10:37:25.061Z,0.50
2024-01-08T10:38:25.540Z,0.50
2024-01-08T10:39:30.906Z,0.52
2024-01-08T10:40:26.125Z,0.51
2024-01-08T10:41:25.148Z,0.48
2024-01-08T10:42:25.121Z,0.47
2024-01-08T10:43:25.479Z,0.46
2024-01-08T10:44:25.225Z,0.46
2024-01-08T10:45:25.119Z,0.51
2024-01-08T10:46:25.120Z,0.51
2024-01-08T10:47:28.710Z,0.53
2024-01-08T10:48:25.602Z,0.53
2024-01-08T10:49:25.185Z,0.53
2024-01-08T10:50:25.183Z,0.53
2024-01-08T10:51:25.127Z,0.54
2024-01-08T10:52:25.155Z,0.53
2024-01-08T10:53:25.520Z,0.59
2024-01-08T10:54:25.145Z,0.56
2024-01-08T10:55:25.152Z,0.57
2024-01-08T10:56:25.156Z,0.55
2024-01-08T10:57:25.145Z,0.54
2024-01-08T10:58:25.153Z,0.56
2024-01-08T10:59:25.210Z,0.59
2024-01-08T11:00:25.154Z,0.57
2024-01-08T11:01:25.144Z,0.59
2024-01-08T11:02:25.197Z,0.59
2024-01-08T11:03:25.215Z,0.57
2024-01-08T11:04:25.194Z,0.61
2024-01-08T11:05:25.326Z,0.63
2024-01-08T11:06:25.207Z,0.61
2024-01-08T11:07:25.153Z,0.63
2024-01-08T11:08:25.243Z,0.65
2024-01-08T11:09:25.237Z,0.64
2024-01-08T11:10:25.199Z,0.65
2024-01-08T11:11:25.259Z,0.68
2024-01-08T11:12:25.312Z,0.67
2024-01-08T11:13:25.400Z,0.68
2024-01-08T11:14:25.500Z,0.69
2024-01-08T11:15:25.504Z,0.69
2024-01-08T11:16:25.604Z,0.72
2024-01-08T11:17:25.768Z,0.72
2024-01-08T11:18:29.390Z,0.74
2024-01-08T11:19:26.758Z,0.75
2024-01-08T11:20:25.737Z,0.75
2024-01-08T11:21:25.728Z,0.77
2024-01-08T11:22:25.771Z,0.80
2024-01-08T11:23:25.811Z,0.82
2024-01-08T11:24:25.718Z,0.84
2024-01-08T11:25:25.729Z,0.86
2024-01-08T11:26:25.745Z,0.90
2024-01-08T11:27:25.735Z,0.92
2024-01-08T11:28:25.729Z,0.92
2024-01-08T11:29:26.039Z,0.92
2024-01-08T11:30:25.916Z,0.86
2024-01-08T11:31:25.911Z,0.88
2024-01-08T11:32:26.010Z,0.84
2024-01-08T11:33:26.556Z,0.83
2024-01-08T11:34:26.173Z,0.80
2024-01-08T11:35:26.128Z,0.81
2024-01-08T11:36:26.162Z,0.79
2024-01-08T11:37:26.223Z,0.79
2024-01-08T11:38:26.383Z,0.76
2024-01-08T11:39:26.365Z,0.73
2024-01-08T11:40:26.415Z,0.72
2024-01-08T11:41:26.428Z,0.70
2024-01-08T11:42:26.426Z,0.68
2024-01-08T11:43:26.518Z,0.69
2024-01-08T11:44:26.541Z,0.67
2024-01-08T11:45:26.480Z,0.67
2024-01-08T11:46:26.461Z,0.66
2024-01-08T11:47:26.499Z,0.66
2024-01-08T11:48:26.643Z,0.63
2024-01-08T11:49:26.524Z,0.64
2024-01-08T11:50:26.572Z,0.65
2024-01-08T11:51:26.561Z,0.63
2024-01-08T11:52:26.596Z,0.61
2024-01-08T11:53:26.650Z,0.61
2024-01-08T11:54:26.649Z,0.62
2024-01-08T11:55:26.688Z,0.61
2024-01-08T11:56:26.825Z,0.60
2024-01-08T11:57:26.838Z,0.58
2024-01-08T11:58:26.802Z,0.59
2024-01-08T11:59:26.929Z,0.59
2024-01-08T12:00:26.866Z,0.61
2024-01-08T12:01:26.906Z,0.58
2024-01-08T12:02:27.027Z,0.57
2024-01-08T12:03:27.053Z,0.56
2024-01-08T12:04:27.028Z,0.57
2024-01-08T12:05:27.146Z,0.58
2024-01-08T12:06:27.222Z,0.57
2024-01-08T12:07:27.169Z,0.54
2024-01-08T12:08:27.238Z,0.57
2024-01-08T12:09:27.336Z,0.53
2024-01-08T12:10:27.292Z,0.54
2024-01-08T12:11:27.398Z,0.55
2024-01-08T12:12:27.395Z,0.52
2024-01-08T12:13:27.436Z,0.54
2024-01-08T12:14:27.480Z,0.50
2024-01-08T12:15:27.542Z,0.52
2024-01-08T12:16:27.577Z,0.50
2024-01-08T12:17:27.725Z,0.52
2024-01-08T12:18:27.821Z,0.52
2024-01-08T12:19:27.794Z,0.50
2024-01-08T12:20:27.803Z,0.51
2024-01-08T12:21:36.748Z,0.50
2024-01-08T12:22:28.849Z,0.50
2024-01-08T12:23:27.909Z,0.49
2024-01-08T12:24:27.862Z,0.49
2024-01-08T12:25:27.897Z,0.48
2024-01-08T12:26:27.907Z,0.46
2024-01-08T12:27:27.876Z,0.52
2024-01-08T12:28:27.839Z,0.53
2024-01-08T12:29:27.867Z,0.51
2024-01-08T12:30:27.924Z,0.51
2024-01-08T12:31:27.842Z,0.54
2024-01-08T12:32:27.965Z,0.53
2024-01-08T12:33:28.060Z,0.50
2024-01-08T12:34:28.054Z,0.53
2024-01-08T12:35:28.154Z,0.52
2024-01-08T12:36:28.113Z,0.52
2024-01-08T12:37:28.172Z,0.50
2024-01-08T12:38:28.239Z,0.55
2024-01-08T12:39:28.292Z,0.53
2024-01-08T12:40:28.342Z,0.53
2024-01-08T12:41:28.424Z,0.53
2024-01-08T12:42:28.462Z,0.52
2024-01-08T12:43:28.531Z,0.50
2024-01-08T12:44:29.067Z,0.52
2024-01-08T12:45:28.647Z,0.54
2024-01-08T12:46:28.736Z,0.52
2024-01-08T12:47:28.906Z,0.52
2024-01-08T12:48:29.003Z,0.51
2024-01-08T12:49:28.990Z,0.51
2024-01-08T12:50:29.007Z,0.51
2024-01-08T12:51:29.033Z,0.53
2024-01-08T12:52:29.088Z,0.52
2024-01-08T12:53:29.160Z,0.52
2024-01-08T12:54:29.244Z,0.51
2024-01-08T12:55:29.286Z,0.55
2024-01-08T12:56:29.361Z,0.52
2024-01-08T12:57:29.444Z,0.50
2024-01-08T12:58:29.474Z,0.52
2024-01-08T12:59:29.615Z,0.51
2024-01-08T13:00:29.613Z,0.50
2024-01-08T13:01:29.705Z,0.54
2024-01-08T13:02:29.870Z,0.52
2024-01-08T13:03:29.815Z,0.53
2024-01-08T13:04:30.016Z,0.51
2024-01-08T13:05:30.063Z,0.51
2024-01-08T13:06:30.816Z,0.51
2024-01-08T13:07:30.072Z,0.51
2024-01-08T13:08:30.148Z,0.51
2024-01-08T13:09:30.212Z,0.53
2024-01-08T13:10:30.264Z,0.52
2024-01-08T13:11:30.402Z,0.51
2024-01-08T13:12:30.400Z,0.54
2024-01-08T13:13:30.469Z,0.52
2024-01-08T13:14:30.550Z,0.53
2024-01-08T13:15:30.608Z,0.52
2024-01-08T13:16:30.725Z,0.52
2024-01-08T13:17:30.783Z,0.51
2024-01-08T13:18:31.045Z,0.53
2024-01-08T13:19:30.891Z,0.52
2024-01-08T13:20:31.084Z,0.51
2024-01-08T13:21:31.015Z,0.52
2024-01-08T13:22:31.093Z,0.53
2024-01-08T13:23:31.174Z,0.53
2024-01-08T13:24:31.303Z,0.51
2024-01-08T13:25:31.543Z,0.52
2024-01-08T13:26:31.388Z,0.53
2024-01-08T13:27:31.450Z,0.52
2024-01-08T13:28:31.506Z,0.52
2024-01-08T13:29:31.605Z,0.54
2024-01-08T13:30:31.680Z,0.52
2024-01-08T13:31:31.716Z,0.54
2024-01-08T13:32:31.832Z,0.52
2024-01-08T13:33:31.929Z,0.54
2024-01-08T13:34:32.051Z,0.52
2024-01-08T13:35:32.035Z,0.52
2024-01-08T13:36:32.069Z,0.54
2024-01-08T13:37:32.136Z,0.54
2024-01-08T13:38:32.266Z,0.52
2024-01-08T13:39:32.322Z,0.53
2024-01-08T13:40:32.364Z,0.53
2024-01-08T13:41:32.486Z,0.54
2024-01-08T13:42:32.493Z,0.54
2024-01-08T13:43:32.548Z,0.52
2024-01-08T13:44:32.658Z,0.52
2024-01-08T13:45:32.701Z,0.54
2024-01-08T13:46:32.812Z,0.54
2024-01-08T13:47:32.945Z,0.52
2024-01-08T13:48:33.335Z,0.51
2024-01-08T13:49:32.949Z,0.52
2024-01-08T13:50:32.980Z,0.51
2024-01-08T13:51:33.033Z,0.53
2024-01-08T13:52:33.065Z,0.52
2024-01-08T13:53:33.119Z,0.52
2024-01-08T13:54:33.174Z,0.52
2024-01-08T13:55:33.187Z,0.51
2024-01-08T13:56:33.262Z,0.53
2024-01-08T13:57:33.226Z,0.53
2024-01-08T13:58:33.230Z,0.52
2024-01-08T13:59:33.264Z,0.52
2024-01-08T14:00:33.278Z,0.51
2024-01-08T14:01:33.287Z,0.51
2024-01-08T14:02:33.441Z,0.51
2024-01-08T14:03:33.439Z,0.51
2024-01-08T14:04:33.359Z,0.52
2024-01-08T14:05:33.451Z,0.52
2024-01-08T14:06:33.420Z,0.52
2024-01-08T14:07:33.396Z,0.51
2024-01-08T14:08:33.483Z,0.51
2024-01-08T14:09:33.392Z,0.52
2024-01-08T14:10:33.394Z,0.52
2024-01-08T14:11:33.423Z,0.52
2024-01-08T14:12:33.433Z,0.52
2024-01-08T14:13:33.428Z,0.52
2024-01-08T14:14:33.491Z,0.52
2024-01-08T14:15:33.441Z,0.52
2024-01-08T14:16:33.430Z,0.52
2024-01-08T14:17:33.551Z,0.53
2024-01-08T14:18:33.550Z,0.50
2024-01-08T14:19:33.634Z,0.51
2024-01-08T14:20:33.512Z,0.53
2024-01-08T14:21:33.454Z,0.52
2024-01-08T14:22:33.464Z,0.52
2024-01-08T14:23:33.525Z,0.52
2024-01-08T14:24:33.483Z,0.52
2024-01-08T14:25:33.491Z,0.52
2024-01-08T14:26:33.528Z,0.53
2024-01-08T14:27:33.501Z,0.52
2024-01-08T14:28:33.508Z,0.52
2024-01-08T14:29:33.576Z,0.50
2024-01-08T14:30:33.600Z,0.52
2024-01-08T14:31:33.531Z,0.52
2024-01-08T14:32:33.596Z,0.53
2024-01-08T14:33:33.673Z,0.52
2024-01-08T14:34:33.643Z,0.52
2024-01-08T14:35:33.660Z,0.51
2024-01-08T14:36:33.606Z,0.52
2024-01-08T14:37:33.714Z,0.50
2024-01-08T14:38:33.643Z,0.51
2024-01-08T14:39:33.614Z,0.52
2024-01-08T14:40:33.627Z,0.52
2024-01-08T14:41:33.692Z,0.52
2024-01-08T14:42:33.634Z,0.52
2024-01-08T14:43:40.947Z,0.50
2024-01-08T14:44:41.119Z,0.50
2024-01-08T14:45:40.846Z,0.50
2024-01-08T14:46:40.882Z,0.50
2024-01-08T14:47:40.949Z,0.50
2024-01-08T14:48:40.899Z,0.50
2024-01-08T14:49:40.955Z,0.50
2024-01-08T14:50:40.855Z,0.50
2024-01-08T14:51:40.850Z,0.52
2024-01-08T14:52:40.836Z,0.51
2024-01-08T14:53:40.851Z,0.51
2024-01-08T14:54:40.841Z,0.52
2024-01-08T14:55:40.848Z,0.51
2024-01-08T14:56:40.964Z,0.51
2024-01-08T14:57:40.857Z,0.51
2024-01-08T14:58:40.896Z,0.50
2024-01-08T14:59:40.891Z,0.50
2024-01-08T15:00:40.867Z,0.50
2024-01-08T15:01:40.854Z,0.51
2024-01-08T15:02:41.468Z,0.51
2024-01-08T15:03:40.894Z,0.52
2024-01-08T15:04:40.854Z,0.51
2024-01-08T15:05:41.018Z,0.51
2024-01-08T15:06:40.875Z,0.51
2024-01-08T15:07:40.857Z,0.51
2024-01-08T15:08:41.118Z,0.51
2024-01-08T15:09:40.915Z,0.50
2024-01-08T15:10:40.865Z,0.50
2024-01-08T15:11:40.945Z,0.51
2024-01-08T15:12:40.863Z,0.50
2024-01-08T15:13:40.864Z,0.50
2024-01-08T15:14:40.922Z,0.51
2024-01-08T15:15:40.873Z,0.51
2024-01-08T15:16:40.875Z,0.51
2024-01-08T15:17:41.019Z,0.50
2024-01-08T15:18:41.001Z,0.51
2024-01-08T15:19:40.915Z,0.51
2024-01-08T15:20:40.905Z,0.50
2024-01-08T15:21:40.873Z,0.51
2024-01-08T15:22:40.880Z,0.51
2024-01-08T15:23:41.145Z,0.51
2024-01-08T15:24:40.897Z,0.51
2024-01-08T15:25:40.882Z,0.51
2024-01-08T15:26:40.925Z,0.51
2024-01-08T15:27:40.944Z,0.51
2024-01-08T15:28:40.874Z,0.51
2024-01-08T15:29:41.137Z,0.51
2024-01-08T15:30:40.917Z,0.50
2024-01-08T15:31:40.878Z,0.52
2024-01-08T15:32:41.075Z,0.51
2024-01-08T15:33:40.993Z,0.51